sensor_id;sensor_type;location;lat;lon;timestamp;pressure;altitude;pressure_sealevel;temperature
20058;BMP180;10189;49.546;7.906;2023-04-06T00:02:15;98488.00;;;1.80
20058;BMP180;10189;49.546;7.906;2023-04-06T00:04:41;98480.00;;;1.80
20058;BMP180;10189;49.546;7.906;2023-04-06T00:07:06;98487.00;;;1.90
20058;BMP180;10189;49.546;7.906;2023-04-06T00:09:32;98482.00;;;1.80
20058;BMP180;10189;49.546;7.906;2023-04-06T00:11:58;98480.00;;;1.80
20058;BMP180;10189;49.546;7.906;2023-04-06T00:14:24;98487.00;;;1.80
20058;BMP180;10189;49.546;7.906;2023-04-06T00:16:50;98480.00;;;1.80
20058;BMP180;10189;49.546;7.906;2023-04-06T00:19:16;98471.00;;;1.70
20058;BMP180;10189;49.546;7.906;2023-04-06T00:21:42;98476.00;;;1.70
20058;BMP180;10189;49.546;7.906;2023-04-06T00:24:08;98460.00;;;1.60
20058;BMP180;10189;49.546;7.906;2023-04-06T00:26:34;98462.00;;;1.60
20058;BMP180;10189;49.546;7.906;2023-04-06T00:29:00;98466.00;;;1.60
20058;BMP180;10189;49.546;7.906;2023-04-06T00:31:26;98469.00;;;1.60
20058;BMP180;10189;49.546;7.906;2023-04-06T00:33:52;98466.00;;;1.60
20058;BMP180;10189;49.546;7.906;2023-04-06T00:36:18;98468.00;;;1.50
20058;BMP180;10189;49.546;7.906;2023-04-06T00:38:44;98473.00;;;1.50
20058;BMP180;10189;49.546;7.906;2023-04-06T00:41:11;98455.00;;;1.50
20058;BMP180;10189;49.546;7.906;2023-04-06T00:43:37;98459.00;;;1.50
20058;BMP180;10189;49.546;7.906;2023-04-06T00:46:03;98460.00;;;1.50
20058;BMP180;10189;49.546;7.906;2023-04-06T00:48:29;98467.00;;;1.40
20058;BMP180;10189;49.546;7.906;2023-04-06T00:50:57;98452.00;;;1.40
20058;BMP180;10189;49.546;7.906;2023-04-06T00:53:23;98455.00;;;1.40
20058;BMP180;10189;49.546;7.906;2023-04-06T00:55:51;98454.00;;;1.40
20058;BMP180;10189;49.546;7.906;2023-04-06T00:58:17;98443.00;;;1.40
20058;BMP180;10189;49.546;7.906;2023-04-06T01:00:49;98446.00;;;1.40
20058;BMP180;10189;49.546;7.906;2023-04-06T01:03:18;98441.00;;;1.40
20058;BMP180;10189;49.546;7.906;2023-04-06T01:05:44;98446.00;;;1.40
20058;BMP180;10189;49.546;7.906;2023-04-06T01:08:18;98456.00;;;1.40
20058;BMP180;10189;49.546;7.906;2023-04-06T01:10:44;98451.00;;;1.30
20058;BMP180;10189;49.546;7.906;2023-04-06T01:13:21;98450.00;;;1.30
20058;BMP180;10189;49.546;7.906;2023-04-06T01:15:53;98439.00;;;1.60
20058;BMP180;10189;49.546;7.906;2023-04-06T01:18:32;98445.00;;;1.50
20058;BMP180;10189;49.546;7.906;2023-04-06T01:21:11;98433.00;;;1.40
20058;BMP180;10189;49.546;7.906;2023-04-06T01:23:47;98440.00;;;1.40
20058;BMP180;10189;49.546;7.906;2023-04-06T01:26:16;98427.00;;;1.40
20058;BMP180;10189;49.546;7.906;2023-04-06T01:28:42;98424.00;;;1.40
20058;BMP180;10189;49.546;7.906;2023-04-06T01:31:22;98427.00;;;1.30
20058;BMP180;10189;49.546;7.906;2023-04-06T01:33:51;98420.00;;;1.30
20058;BMP180;10189;49.546;7.906;2023-04-06T01:36:20;98416.00;;;1.30
20058;BMP180;10189;49.546;7.906;2023-04-06T01:38:52;98414.00;;;1.30
20058;BMP180;10189;49.546;7.906;2023-04-06T01:41:23;98424.00;;;1.30
20058;BMP180;10189;49.546;7.906;2023-04-06T01:43:52;98425.00;;;1.30
20058;BMP180;10189;49.546;7.906;2023-04-06T01:46:22;98415.00;;;1.30
20058;BMP180;10189;49.546;7.906;2023-04-06T01:48:49;98419.00;;;1.20
20058;BMP180;10189;49.546;7.906;2023-04-06T01:51:30;98418.00;;;1.50
20058;BMP180;10189;49.546;7.906;2023-04-06T01:54:01;98412.00;;;1.30
20058;BMP180;10189;49.546;7.906;2023-04-06T01:56:43;98418.00;;;1.30
20058;BMP180;10189;49.546;7.906;2023-04-06T01:59:25;98410.00;;;1.30
20058;BMP180;10189;49.546;7.906;2023-04-06T02:01:53;98418.00;;;1.30
20058;BMP180;10189;49.546;7.906;2023-04-06T02:04:20;98425.00;;;1.20
20058;BMP180;10189;49.546;7.906;2023-04-06T02:06:52;98418.00;;;1.10
20058;BMP180;10189;49.546;7.906;2023-04-06T02:09:22;98426.00;;;1.10
20058;BMP180;10189;49.546;7.906;2023-04-06T02:11:48;98412.00;;;1.10
20058;BMP180;10189;49.546;7.906;2023-04-06T02:14:14;98418.00;;;1.00
20058;BMP180;10189;49.546;7.906;2023-04-06T02:16:46;98417.00;;;1.00
20058;BMP180;10189;49.546;7.906;2023-04-06T02:19:12;98424.00;;;1.00
20058;BMP180;10189;49.546;7.906;2023-04-06T02:21:38;98412.00;;;1.00
20058;BMP180;10189;49.546;7.906;2023-04-06T02:24:05;98415.00;;;1.00
20058;BMP180;10189;49.546;7.906;2023-04-06T02:26:31;98410.00;;;1.00
20058;BMP180;10189;49.546;7.906;2023-04-06T02:28:56;98413.00;;;1.00
20058;BMP180;10189;49.546;7.906;2023-04-06T02:31:22;98422.00;;;0.90
20058;BMP180;10189;49.546;7.906;2023-04-06T02:33:50;98406.00;;;0.90
20058;BMP180;10189;49.546;7.906;2023-04-06T02:36:16;98407.00;;;0.90
20058;BMP180;10189;49.546;7.906;2023-04-06T02:38:42;98400.00;;;0.90
20058;BMP180;10189;49.546;7.906;2023-04-06T02:41:09;98404.00;;;0.90
20058;BMP180;10189;49.546;7.906;2023-04-06T02:43:37;98411.00;;;0.90
20058;BMP180;10189;49.546;7.906;2023-04-06T02:46:20;98400.00;;;0.90
20058;BMP180;10189;49.546;7.906;2023-04-06T02:48:46;98405.00;;;0.90
20058;BMP180;10189;49.546;7.906;2023-04-06T02:51:13;98404.00;;;0.80
20058;BMP180;10189;49.546;7.906;2023-04-06T02:53:43;98398.00;;;0.90
20058;BMP180;10189;49.546;7.906;2023-04-06T02:56:09;98401.00;;;0.90
20058;BMP180;10189;49.546;7.906;2023-04-06T02:58:47;98399.00;;;0.90
20058;BMP180;10189;49.546;7.906;2023-04-06T03:01:13;98398.00;;;0.90
20058;BMP180;10189;49.546;7.906;2023-04-06T03:03:41;98399.00;;;0.90
20058;BMP180;10189;49.546;7.906;2023-04-06T03:06:13;98385.00;;;0.80
20058;BMP180;10189;49.546;7.906;2023-04-06T03:08:39;98390.00;;;0.80
20058;BMP180;10189;49.546;7.906;2023-04-06T03:11:05;98391.00;;;0.70
20058;BMP180;10189;49.546;7.906;2023-04-06T03:13:37;98390.00;;;0.70
20058;BMP180;10189;49.546;7.906;2023-04-06T03:16:07;98399.00;;;0.70
20058;BMP180;10189;49.546;7.906;2023-04-06T03:18:34;98388.00;;;0.70
20058;BMP180;10189;49.546;7.906;2023-04-06T03:21:00;98400.00;;;0.70
20058;BMP180;10189;49.546;7.906;2023-04-06T03:23:43;98397.00;;;0.70
20058;BMP180;10189;49.546;7.906;2023-04-06T03:26:09;98390.00;;;0.70
20058;BMP180;10189;49.546;7.906;2023-04-06T03:28:35;98395.00;;;0.60
20058;BMP180;10189;49.546;7.906;2023-04-06T03:31:04;98393.00;;;0.80
20058;BMP180;10189;49.546;7.906;2023-04-06T03:33:43;98392.00;;;0.70
20058;BMP180;10189;49.546;7.906;2023-04-06T03:36:14;98398.00;;;0.70
20058;BMP180;10189;49.546;7.906;2023-04-06T03:38:42;98393.00;;;0.70
20058;BMP180;10189;49.546;7.906;2023-04-06T03:41:11;98398.00;;;0.60
20058;BMP180;10189;49.546;7.906;2023-04-06T03:43:40;98395.00;;;0.70
20058;BMP180;10189;49.546;7.906;2023-04-06T03:46:06;98398.00;;;0.80
20058;BMP180;10189;49.546;7.906;2023-04-06T03:48:32;98397.00;;;0.80
20058;BMP180;10189;49.546;7.906;2023-04-06T03:51:02;98390.00;;;0.90
20058;BMP180;10189;49.546;7.906;2023-04-06T03:53:28;98388.00;;;0.90
20058;BMP180;10189;49.546;7.906;2023-04-06T03:55:54;98396.00;;;0.80
20058;BMP180;10189;49.546;7.906;2023-04-06T03:58:20;98407.00;;;0.70
20058;BMP180;10189;49.546;7.906;2023-04-06T04:00:46;98401.00;;;0.70
20058;BMP180;10189;49.546;7.906;2023-04-06T04:03:12;98419.00;;;0.70
20058;BMP180;10189;49.546;7.906;2023-04-06T04:05:38;98417.00;;;0.60
20058;BMP180;10189;49.546;7.906;2023-04-06T04:08:04;98421.00;;;0.60
20058;BMP180;10189;49.546;7.906;2023-04-06T04:10:30;98417.00;;;0.60
20058;BMP180;10189;49.546;7.906;2023-04-06T04:12:56;98423.00;;;0.60
20058;BMP180;10189;49.546;7.906;2023-04-06T04:15:22;98425.00;;;0.60
20058;BMP180;10189;49.546;7.906;2023-04-06T04:17:48;98432.00;;;0.60
20058;BMP180;10189;49.546;7.906;2023-04-06T04:20:16;98428.00;;;0.60
20058;BMP180;10189;49.546;7.906;2023-04-06T04:22:42;98428.00;;;0.50
20058;BMP180;10189;49.546;7.906;2023-04-06T04:25:09;98423.00;;;0.50
20058;BMP180;10189;49.546;7.906;2023-04-06T04:27:41;98435.00;;;0.50
20058;BMP180;10189;49.546;7.906;2023-04-06T04:30:07;98431.00;;;0.40
20058;BMP180;10189;49.546;7.906;2023-04-06T04:32:33;98437.00;;;0.40
20058;BMP180;10189;49.546;7.906;2023-04-06T04:35:02;98440.00;;;0.40
20058;BMP180;10189;49.546;7.906;2023-04-06T04:37:36;98447.00;;;0.50
20058;BMP180;10189;49.546;7.906;2023-04-06T04:40:03;98440.00;;;0.50
20058;BMP180;10189;49.546;7.906;2023-04-06T04:42:34;98438.00;;;0.40
20058;BMP180;10189;49.546;7.906;2023-04-06T04:45:02;98436.00;;;0.40
20058;BMP180;10189;49.546;7.906;2023-04-06T04:47:35;98438.00;;;0.40
20058;BMP180;10189;49.546;7.906;2023-04-06T04:50:03;98441.00;;;0.40
20058;BMP180;10189;49.546;7.906;2023-04-06T04:52:30;98435.00;;;0.50
20058;BMP180;10189;49.546;7.906;2023-04-06T04:55:10;98435.00;;;0.50
20058;BMP180;10189;49.546;7.906;2023-04-06T04:57:36;98426.00;;;0.50
20058;BMP180;10189;49.546;7.906;2023-04-06T05:00:05;98432.00;;;0.50
20058;BMP180;10189;49.546;7.906;2023-04-06T05:02:33;98424.00;;;0.60
20058;BMP180;10189;49.546;7.906;2023-04-06T05:05:20;98432.00;;;0.70
20058;BMP180;10189;49.546;7.906;2023-04-06T05:07:46;98423.00;;;0.70
20058;BMP180;10189;49.546;7.906;2023-04-06T05:10:24;98422.00;;;0.70
20058;BMP180;10189;49.546;7.906;2023-04-06T05:12:54;98419.00;;;0.70
20058;BMP180;10189;49.546;7.906;2023-04-06T05:15:20;98416.00;;;0.80
20058;BMP180;10189;49.546;7.906;2023-04-06T05:17:49;98432.00;;;0.90
20058;BMP180;10189;49.546;7.906;2023-04-06T05:20:20;98421.00;;;1.00
20058;BMP180;10189;49.546;7.906;2023-04-06T05:22:49;98418.00;;;1.00
20058;BMP180;10189;49.546;7.906;2023-04-06T05:25:15;98417.00;;;1.10
20058;BMP180;10189;49.546;7.906;2023-04-06T05:27:42;98418.00;;;1.20
20058;BMP180;10189;49.546;7.906;2023-04-06T05:30:22;98412.00;;;1.30
20058;BMP180;10189;49.546;7.906;2023-04-06T05:32:48;98417.00;;;1.30
20058;BMP180;10189;49.546;7.906;2023-04-06T05:35:16;98408.00;;;1.40
20058;BMP180;10189;49.546;7.906;2023-04-06T05:37:46;98421.00;;;1.50
20058;BMP180;10189;49.546;7.906;2023-04-06T05:40:12;98414.00;;;1.60
20058;BMP180;10189;49.546;7.906;2023-04-06T05:42:40;98410.00;;;1.80
20058;BMP180;10189;49.546;7.906;2023-04-06T05:45:11;98408.00;;;2.00
20058;BMP180;10189;49.546;7.906;2023-04-06T05:47:43;98416.00;;;2.10
20058;BMP180;10189;49.546;7.906;2023-04-06T05:50:19;98407.00;;;2.30
20058;BMP180;10189;49.546;7.906;2023-04-06T05:52:45;98399.00;;;2.50
20058;BMP180;10189;49.546;7.906;2023-04-06T05:55:14;98401.00;;;2.70
20058;BMP180;10189;49.546;7.906;2023-04-06T05:57:44;98401.00;;;2.90
20058;BMP180;10189;49.546;7.906;2023-04-06T06:00:14;98405.00;;;3.10
20058;BMP180;10189;49.546;7.906;2023-04-06T06:02:48;98394.00;;;3.30
20058;BMP180;10189;49.546;7.906;2023-04-06T06:05:18;98397.00;;;3.50
20058;BMP180;10189;49.546;7.906;2023-04-06T06:07:45;98394.00;;;3.70
20058;BMP180;10189;49.546;7.906;2023-04-06T06:10:12;98386.00;;;3.90
20058;BMP180;10189;49.546;7.906;2023-04-06T06:12:38;98394.00;;;4.00
20058;BMP180;10189;49.546;7.906;2023-04-06T06:15:05;98384.00;;;4.10
20058;BMP180;10189;49.546;7.906;2023-04-06T06:17:36;98381.00;;;4.10
20058;BMP180;10189;49.546;7.906;2023-04-06T06:20:03;98380.00;;;4.10
20058;BMP180;10189;49.546;7.906;2023-04-06T06:22:29;98375.00;;;4.30
20058;BMP180;10189;49.546;7.906;2023-04-06T06:24:55;98375.00;;;4.40
20058;BMP180;10189;49.546;7.906;2023-04-06T06:27:23;98369.00;;;4.70
20058;BMP180;10189;49.546;7.906;2023-04-06T06:29:49;98367.00;;;4.50
20058;BMP180;10189;49.546;7.906;2023-04-06T06:32:16;98372.00;;;4.50
20058;BMP180;10189;49.546;7.906;2023-04-06T06:34:42;98379.00;;;4.60
20058;BMP180;10189;49.546;7.906;2023-04-06T06:37:09;98363.00;;;4.70
20058;BMP180;10189;49.546;7.906;2023-04-06T06:39:37;98367.00;;;5.00
20058;BMP180;10189;49.546;7.906;2023-04-06T06:42:03;98369.00;;;5.00
20058;BMP180;10189;49.546;7.906;2023-04-06T06:45:01;98364.00;;;5.10
20058;BMP180;10189;49.546;7.906;2023-04-06T06:47:27;98365.00;;;5.50
20058;BMP180;10189;49.546;7.906;2023-04-06T06:49:53;98365.00;;;5.30
20058;BMP180;10189;49.546;7.906;2023-04-06T06:52:19;98361.00;;;5.40
20058;BMP180;10189;49.546;7.906;2023-04-06T06:54:45;98358.00;;;5.40
20058;BMP180;10189;49.546;7.906;2023-04-06T06:57:11;98356.00;;;5.60
20058;BMP180;10189;49.546;7.906;2023-04-06T06:59:37;98357.00;;;5.60
20058;BMP180;10189;49.546;7.906;2023-04-06T07:02:04;98344.00;;;5.80
20058;BMP180;10189;49.546;7.906;2023-04-06T07:04:30;98349.00;;;5.90
20058;BMP180;10189;49.546;7.906;2023-04-06T07:06:56;98349.00;;;6.30
20058;BMP180;10189;49.546;7.906;2023-04-06T07:09:23;98337.00;;;6.50
20058;BMP180;10189;49.546;7.906;2023-04-06T07:11:49;98340.00;;;6.70
20058;BMP180;10189;49.546;7.906;2023-04-06T07:14:15;98342.00;;;6.90
20058;BMP180;10189;49.546;7.906;2023-04-06T07:16:42;98344.00;;;6.90
20058;BMP180;10189;49.546;7.906;2023-04-06T07:19:10;98338.00;;;7.00
20058;BMP180;10189;49.546;7.906;2023-04-06T07:21:36;98337.00;;;6.90
20058;BMP180;10189;49.546;7.906;2023-04-06T07:24:02;98335.00;;;7.00
20058;BMP180;10189;49.546;7.906;2023-04-06T07:26:28;98335.00;;;7.10
20058;BMP180;10189;49.546;7.906;2023-04-06T07:28:54;98335.00;;;7.20
20058;BMP180;10189;49.546;7.906;2023-04-06T07:31:23;98330.00;;;7.40
20058;BMP180;10189;49.546;7.906;2023-04-06T07:33:49;98335.00;;;7.60
20058;BMP180;10189;49.546;7.906;2023-04-06T07:36:16;98334.00;;;7.60
20058;BMP180;10189;49.546;7.906;2023-04-06T07:38:43;98330.00;;;7.80
20058;BMP180;10189;49.546;7.906;2023-04-06T07:41:13;98332.00;;;7.80
20058;BMP180;10189;49.546;7.906;2023-04-06T07:43:39;98333.00;;;7.90
20058;BMP180;10189;49.546;7.906;2023-04-06T07:46:06;98331.00;;;8.10
20058;BMP180;10189;49.546;7.906;2023-04-06T07:48:32;98332.00;;;8.30
20058;BMP180;10189;49.546;7.906;2023-04-06T07:51:04;98316.00;;;8.50
20058;BMP180;10189;49.546;7.906;2023-04-06T07:53:32;98331.00;;;8.30
20058;BMP180;10189;49.546;7.906;2023-04-06T07:55:59;98318.00;;;8.60
20058;BMP180;10189;49.546;7.906;2023-04-06T07:58:25;98313.00;;;9.00
20058;BMP180;10189;49.546;7.906;2023-04-06T08:00:51;98317.00;;;9.30
20058;BMP180;10189;49.546;7.906;2023-04-06T08:03:17;98310.00;;;9.60
20058;BMP180;10189;49.546;7.906;2023-04-06T08:05:46;98318.00;;;9.80
20058;BMP180;10189;49.546;7.906;2023-04-06T08:08:12;98318.00;;;10.00
20058;BMP180;10189;49.546;7.906;2023-04-06T08:10:38;98317.00;;;9.90
20058;BMP180;10189;49.546;7.906;2023-04-06T08:13:04;98311.00;;;10.00
20058;BMP180;10189;49.546;7.906;2023-04-06T08:15:30;98311.00;;;10.30
20058;BMP180;10189;49.546;7.906;2023-04-06T08:17:55;98302.00;;;10.80
20058;BMP180;10189;49.546;7.906;2023-04-06T08:20:22;98296.00;;;11.00
20058;BMP180;10189;49.546;7.906;2023-04-06T08:22:48;98304.00;;;11.30
20058;BMP180;10189;49.546;7.906;2023-04-06T08:25:14;98296.00;;;11.60
20058;BMP180;10189;49.546;7.906;2023-04-06T08:27:40;98293.00;;;11.70
20058;BMP180;10189;49.546;7.906;2023-04-06T08:30:06;98298.00;;;11.90
20058;BMP180;10189;49.546;7.906;2023-04-06T08:32:32;98296.00;;;12.10
20058;BMP180;10189;49.546;7.906;2023-04-06T08:34:58;98293.00;;;12.10
20058;BMP180;10189;49.546;7.906;2023-04-06T08:37:25;98297.00;;;12.10
20058;BMP180;10189;49.546;7.906;2023-04-06T08:39:51;98288.00;;;12.20
20058;BMP180;10189;49.546;7.906;2023-04-06T08:42:21;98282.00;;;12.40
20058;BMP180;10189;49.546;7.906;2023-04-06T08:44:49;98282.00;;;12.50
20058;BMP180;10189;49.546;7.906;2023-04-06T08:47:16;98272.00;;;12.80
20058;BMP180;10189;49.546;7.906;2023-04-06T08:49:44;98285.00;;;13.00
20058;BMP180;10189;49.546;7.906;2023-04-06T08:52:11;98281.00;;;12.90
20058;BMP180;10189;49.546;7.906;2023-04-06T08:54:38;98278.00;;;12.90
20058;BMP180;10189;49.546;7.906;2023-04-06T08:57:05;98284.00;;;12.90
20058;BMP180;10189;49.546;7.906;2023-04-06T08:59:35;98283.00;;;13.00
20058;BMP180;10189;49.546;7.906;2023-04-06T09:02:04;98281.00;;;13.20
20058;BMP180;10189;49.546;7.906;2023-04-06T09:04:35;98281.00;;;13.40
20058;BMP180;10189;49.546;7.906;2023-04-06T09:07:02;98273.00;;;13.50
20058;BMP180;10189;49.546;7.906;2023-04-06T09:09:28;98273.00;;;13.30
20058;BMP180;10189;49.546;7.906;2023-04-06T09:11:54;98270.00;;;13.30
20058;BMP180;10189;49.546;7.906;2023-04-06T09:14:41;98280.00;;;13.20
20058;BMP180;10189;49.546;7.906;2023-04-06T09:17:07;98280.00;;;13.40
20058;BMP180;10189;49.546;7.906;2023-04-06T09:19:33;98279.00;;;13.70
20058;BMP180;10189;49.546;7.906;2023-04-06T09:22:05;98283.00;;;13.70
20058;BMP180;10189;49.546;7.906;2023-04-06T09:24:48;98280.00;;;13.50
20058;BMP180;10189;49.546;7.906;2023-04-06T09:27:15;98273.00;;;13.60
20058;BMP180;10189;49.546;7.906;2023-04-06T09:29:42;98267.00;;;13.50
20058;BMP180;10189;49.546;7.906;2023-04-06T09:32:10;98267.00;;;13.80
20058;BMP180;10189;49.546;7.906;2023-04-06T09:34:40;98271.00;;;13.70
20058;BMP180;10189;49.546;7.906;2023-04-06T09:37:17;98253.00;;;13.90
20058;BMP180;10189;49.546;7.906;2023-04-06T09:39:44;98260.00;;;14.00
20058;BMP180;10189;49.546;7.906;2023-04-06T09:42:23;98259.00;;;13.80
20058;BMP180;10189;49.546;7.906;2023-04-06T09:44:50;98268.00;;;14.00
20058;BMP180;10189;49.546;7.906;2023-04-06T09:47:17;98257.00;;;14.40
20058;BMP180;10189;49.546;7.906;2023-04-06T09:49:46;98262.00;;;14.30
20058;BMP180;10189;49.546;7.906;2023-04-06T09:52:14;98258.00;;;14.40
20058;BMP180;10189;49.546;7.906;2023-04-06T09:54:42;98261.00;;;14.30
20058;BMP180;10189;49.546;7.906;2023-04-06T09:57:21;98259.00;;;14.20
20058;BMP180;10189;49.546;7.906;2023-04-06T10:02:50;98253.00;;;14.40
20058;BMP180;10189;49.546;7.906;2023-04-06T10:05:21;98252.00;;;14.70
20058;BMP180;10189;49.546;7.906;2023-04-06T10:07:54;98267.00;;;14.60
20058;BMP180;10189;49.546;7.906;2023-04-06T10:10:21;98249.00;;;14.40
20058;BMP180;10189;49.546;7.906;2023-04-06T10:12:48;98255.00;;;14.60
20058;BMP180;10189;49.546;7.906;2023-04-06T10:15:16;98263.00;;;14.20
20058;BMP180;10189;49.546;7.906;2023-04-06T10:17:43;98258.00;;;14.60
20058;BMP180;10189;49.546;7.906;2023-04-06T10:23:29;98255.00;;;15.40
20058;BMP180;10189;49.546;7.906;2023-04-06T10:25:59;98241.00;;;15.80
20058;BMP180;10189;49.546;7.906;2023-04-06T10:28:31;98236.00;;;16.00
20058;BMP180;10189;49.546;7.906;2023-04-06T10:31:00;98244.00;;;15.40
20058;BMP180;10189;49.546;7.906;2023-04-06T10:33:28;98240.00;;;15.60
20058;BMP180;10189;49.546;7.906;2023-04-06T10:35:54;98246.00;;;15.60
20058;BMP180;10189;49.546;7.906;2023-04-06T10:38:40;98242.00;;;15.60
20058;BMP180;10189;49.546;7.906;2023-04-06T10:41:11;98248.00;;;15.80
20058;BMP180;10189;49.546;7.906;2023-04-06T10:43:40;98244.00;;;16.00
20058;BMP180;10189;49.546;7.906;2023-04-06T10:46:08;98242.00;;;16.10
20058;BMP180;10189;49.546;7.906;2023-04-06T10:48:44;98236.00;;;16.30
20058;BMP180;10189;49.546;7.906;2023-04-06T10:51:17;98237.00;;;16.30
20058;BMP180;10189;49.546;7.906;2023-04-06T10:53:46;98243.00;;;16.40
20058;BMP180;10189;49.546;7.906;2023-04-06T10:56:21;98237.00;;;16.60
20058;BMP180;10189;49.546;7.906;2023-04-06T10:58:52;98227.00;;;16.60
20058;BMP180;10189;49.546;7.906;2023-04-06T11:01:21;98237.00;;;16.30
20058;BMP180;10189;49.546;7.906;2023-04-06T11:03:53;98228.00;;;16.60
20058;BMP180;10189;49.546;7.906;2023-04-06T11:06:25;98212.00;;;16.20
20058;BMP180;10189;49.546;7.906;2023-04-06T11:08:53;98222.00;;;16.40
20058;BMP180;10189;49.546;7.906;2023-04-06T11:11:22;98220.00;;;16.40
20058;BMP180;10189;49.546;7.906;2023-04-06T11:13:52;98220.00;;;16.10
20058;BMP180;10189;49.546;7.906;2023-04-06T11:16:25;98219.00;;;15.90
20058;BMP180;10189;49.546;7.906;2023-04-06T11:19:03;98224.00;;;15.60
20058;BMP180;10189;49.546;7.906;2023-04-06T11:21:41;98221.00;;;15.60
20058;BMP180;10189;49.546;7.906;2023-04-06T11:26:43;98228.00;;;15.70
20058;BMP180;10189;49.546;7.906;2023-04-06T11:29:12;98219.00;;;15.50
20058;BMP180;10189;49.546;7.906;2023-04-06T11:31:41;98219.00;;;15.40
20058;BMP180;10189;49.546;7.906;2023-04-06T11:34:18;98213.00;;;15.20
20058;BMP180;10189;49.546;7.906;2023-04-06T11:36:47;98220.00;;;15.10
20058;BMP180;10189;49.546;7.906;2023-04-06T11:39:21;98209.00;;;15.50
20058;BMP180;10189;49.546;7.906;2023-04-06T11:41:50;98212.00;;;15.10
20058;BMP180;10189;49.546;7.906;2023-04-06T11:47:05;98204.00;;;15.60
20058;BMP180;10189;49.546;7.906;2023-04-06T11:49:33;98206.00;;;15.40
20058;BMP180;10189;49.546;7.906;2023-04-06T11:52:02;98195.00;;;15.20
20058;BMP180;10189;49.546;7.906;2023-04-06T11:54:40;98202.00;;;15.10
20058;BMP180;10189;49.546;7.906;2023-04-06T11:57:08;98195.00;;;15.40
20058;BMP180;10189;49.546;7.906;2023-04-06T11:59:35;98189.00;;;16.00
20058;BMP180;10189;49.546;7.906;2023-04-06T12:02:02;98194.00;;;16.10
20058;BMP180;10189;49.546;7.906;2023-04-06T12:04:29;98191.00;;;16.10
20058;BMP180;10189;49.546;7.906;2023-04-06T12:06:55;98199.00;;;15.70
20058;BMP180;10189;49.546;7.906;2023-04-06T12:09:21;98190.00;;;15.70
20058;BMP180;10189;49.546;7.906;2023-04-06T12:11:48;98184.00;;;16.30
20058;BMP180;10189;49.546;7.906;2023-04-06T12:14:14;98182.00;;;16.90
20058;BMP180;10189;49.546;7.906;2023-04-06T12:16:40;98185.00;;;17.00
20058;BMP180;10189;49.546;7.906;2023-04-06T12:19:06;98187.00;;;16.50
20058;BMP180;10189;49.546;7.906;2023-04-06T12:21:34;98191.00;;;16.80
20058;BMP180;10189;49.546;7.906;2023-04-06T12:24:01;98183.00;;;16.70
20058;BMP180;10189;49.546;7.906;2023-04-06T12:26:27;98186.00;;;16.80
20058;BMP180;10189;49.546;7.906;2023-04-06T12:28:53;98176.00;;;16.30
20058;BMP180;10189;49.546;7.906;2023-04-06T12:31:22;98176.00;;;16.50
20058;BMP180;10189;49.546;7.906;2023-04-06T12:33:49;98185.00;;;16.80
20058;BMP180;10189;49.546;7.906;2023-04-06T12:36:18;98184.00;;;16.60
20058;BMP180;10189;49.546;7.906;2023-04-06T12:38:49;98181.00;;;16.40
20058;BMP180;10189;49.546;7.906;2023-04-06T12:41:19;98168.00;;;16.80
20058;BMP180;10189;49.546;7.906;2023-04-06T12:43:46;98168.00;;;16.60
20058;BMP180;10189;49.546;7.906;2023-04-06T12:46:12;98174.00;;;16.80
20058;BMP180;10189;49.546;7.906;2023-04-06T12:48:38;98181.00;;;16.40
20058;BMP180;10189;49.546;7.906;2023-04-06T12:51:05;98177.00;;;16.60
20058;BMP180;10189;49.546;7.906;2023-04-06T12:53:33;98177.00;;;16.90
20058;BMP180;10189;49.546;7.906;2023-04-06T12:56:00;98171.00;;;16.60
20058;BMP180;10189;49.546;7.906;2023-04-06T12:58:27;98177.00;;;16.50
20058;BMP180;10189;49.546;7.906;2023-04-06T13:00:54;98174.00;;;16.30
20058;BMP180;10189;49.546;7.906;2023-04-06T13:03:21;98183.00;;;15.60
20058;BMP180;10189;49.546;7.906;2023-04-06T13:05:50;98178.00;;;16.10
20058;BMP180;10189;49.546;7.906;2023-04-06T13:08:19;98173.00;;;16.40
20058;BMP180;10189;49.546;7.906;2023-04-06T13:10:49;98164.00;;;16.80
20058;BMP180;10189;49.546;7.906;2023-04-06T13:13:16;98160.00;;;17.00
20058;BMP180;10189;49.546;7.906;2023-04-06T13:15:44;98165.00;;;16.70
20058;BMP180;10189;49.546;7.906;2023-04-06T13:18:10;98166.00;;;16.20
20058;BMP180;10189;49.546;7.906;2023-04-06T13:20:36;98182.00;;;16.40
20058;BMP180;10189;49.546;7.906;2023-04-06T13:23:02;98169.00;;;17.00
20058;BMP180;10189;49.546;7.906;2023-04-06T13:25:29;98168.00;;;16.50
20058;BMP180;10189;49.546;7.906;2023-04-06T13:27:55;98178.00;;;16.30
20058;BMP180;10189;49.546;7.906;2023-04-06T13:30:21;98171.00;;;16.20
20058;BMP180;10189;49.546;7.906;2023-04-06T13:32:47;98183.00;;;16.00
20058;BMP180;10189;49.546;7.906;2023-04-06T13:35:13;98170.00;;;15.90
20058;BMP180;10189;49.546;7.906;2023-04-06T13:37:39;98181.00;;;15.70
20058;BMP180;10189;49.546;7.906;2023-04-06T13:40:06;98174.00;;;15.90
20058;BMP180;10189;49.546;7.906;2023-04-06T13:42:32;98170.00;;;16.00
20058;BMP180;10189;49.546;7.906;2023-04-06T13:45:01;98179.00;;;16.10
20058;BMP180;10189;49.546;7.906;2023-04-06T13:47:27;98180.00;;;16.00
20058;BMP180;10189;49.546;7.906;2023-04-06T13:49:54;98167.00;;;16.10
20058;BMP180;10189;49.546;7.906;2023-04-06T13:52:21;98171.00;;;16.10
20058;BMP180;10189;49.546;7.906;2023-04-06T13:54:47;98182.00;;;15.70
20058;BMP180;10189;49.546;7.906;2023-04-06T13:57:13;98183.00;;;15.70
20058;BMP180;10189;49.546;7.906;2023-04-06T13:59:39;98172.00;;;16.00
20058;BMP180;10189;49.546;7.906;2023-04-06T14:02:08;98173.00;;;15.80
20058;BMP180;10189;49.546;7.906;2023-04-06T14:04:35;98168.00;;;15.80
20058;BMP180;10189;49.546;7.906;2023-04-06T14:07:02;98178.00;;;15.90
20058;BMP180;10189;49.546;7.906;2023-04-06T14:09:29;98174.00;;;15.90
20058;BMP180;10189;49.546;7.906;2023-04-06T14:11:56;98176.00;;;16.00
20058;BMP180;10189;49.546;7.906;2023-04-06T14:14:23;98176.00;;;15.80
20058;BMP180;10189;49.546;7.906;2023-04-06T14:16:49;98172.00;;;15.40
20058;BMP180;10189;49.546;7.906;2023-04-06T14:19:16;98174.00;;;15.50
20058;BMP180;10189;49.546;7.906;2023-04-06T14:21:50;98171.00;;;15.50
20058;BMP180;10189;49.546;7.906;2023-04-06T14:24:17;98175.00;;;15.70
20058;BMP180;10189;49.546;7.906;2023-04-06T14:26:43;98172.00;;;15.80
20058;BMP180;10189;49.546;7.906;2023-04-06T14:29:10;98173.00;;;15.30
20058;BMP180;10189;49.546;7.906;2023-04-06T14:31:36;98165.00;;;15.20
20058;BMP180;10189;49.546;7.906;2023-04-06T14:34:03;98166.00;;;15.10
20058;BMP180;10189;49.546;7.906;2023-04-06T14:36:32;98178.00;;;15.00